createdAt,value
2019-03-26T00:01:52.219Z,93.90
2019-03-26T00:04:20.598Z,94.30
2019-03-26T00:06:49.290Z,94.50
2019-03-26T00:09:17.708Z,94.50
2019-03-26T00:11:46.516Z,94.60
2019-03-26T00:14:14.856Z,94.50
2019-03-26T00:16:43.869Z,94.70
2019-03-26T00:19:12.614Z,95.10
2019-03-26T00:21:41.391Z,94.70
2019-03-26T00:24:09.810Z,94.80
2019-03-26T00:26:38.475Z,94.80
2019-03-26T00:29:09.942Z,94.90
2019-03-26T00:31:38.560Z,94.70
2019-03-26T00:34:18.621Z,94.80
2019-03-26T00:36:37.049Z,94.70
2019-03-26T00:39:06.958Z,94.40
2019-03-26T00:41:34.901Z,94.60
2019-03-26T00:44:03.197Z,94.60
2019-03-26T00:46:31.560Z,94.60
2019-03-26T00:49:00.229Z,94.80
2019-03-26T00:51:29.143Z,94.70
2019-03-26T00:53:57.477Z,94.60
2019-03-26T00:56:26.367Z,94.80
2019-03-26T00:58:55.149Z,94.60
2019-03-26T01:01:23.803Z,94.50
2019-03-26T01:03:54.993Z,94.60
2019-03-26T01:06:22.908Z,94.20
2019-03-26T01:08:51.283Z,94.40
2019-03-26T01:11:19.970Z,94.30
2019-03-26T01:13:48.377Z,94.20
2019-03-26T01:16:16.662Z,94.30
2019-03-26T01:18:45.372Z,94.30
2019-03-26T01:21:14.127Z,94.40
2019-03-26T01:23:42.730Z,94.20
2019-03-26T01:26:11.235Z,94.40
2019-03-26T01:28:39.877Z,94.40
2019-03-26T01:31:08.247Z,94.50
2019-03-26T01:33:37.016Z,94.60
2019-03-26T01:36:05.571Z,94.40
2019-03-26T01:38:33.903Z,94.60
2019-03-26T01:41:02.642Z,94.70
2019-03-26T01:43:31.290Z,94.70
2019-03-26T01:45:59.701Z,94.50
2019-03-26T01:48:27.989Z,94.40
2019-03-26T01:50:56.302Z,94.50
2019-03-26T01:53:24.659Z,94.50
2019-03-26T01:55:53.245Z,94.50
2019-03-26T01:58:22.036Z,94.40
2019-03-26T02:00:50.578Z,94.70
2019-03-26T02:03:19.329Z,94.70
2019-03-26T02:05:47.788Z,94.60
2019-03-26T02:08:16.134Z,94.50
2019-03-26T02:10:44.512Z,94.40
2019-03-26T02:13:13.421Z,94.40
2019-03-26T02:15:44.367Z,94.40
2019-03-26T02:18:13.480Z,94.40
2019-03-26T02:20:41.793Z,94.40
2019-03-26T02:23:10.279Z,94.40
2019-03-26T02:25:38.868Z,94.40
2019-03-26T02:28:07.207Z,94.40
2019-03-26T02:30:35.554Z,94.20
2019-03-26T02:33:05.020Z,94.20
2019-03-26T02:35:35.052Z,94.30
2019-03-26T02:38:03.474Z,94.20
2019-03-26T02:40:31.845Z,94.20
2019-03-26T02:43:00.219Z,94.30
2019-03-26T02:45:29.173Z,94.20
2019-03-26T02:47:57.639Z,94.30
2019-03-26T02:50:26.536Z,94.00
2019-03-26T02:52:56.499Z,94.10
2019-03-26T02:55:24.665Z,94.10
2019-03-26T02:57:52.964Z,94.40
2019-03-26T03:00:21.630Z,94.00
2019-03-26T03:02:50.100Z,94.30
2019-03-26T03:05:34.477Z,94.20
2019-03-26T03:07:48.832Z,94.10
2019-03-26T03:10:17.799Z,94.20
2019-03-26T03:13:01.825Z,94.10
2019-03-26T03:15:30.573Z,94.20
2019-03-26T03:17:59.109Z,94.10
2019-03-26T03:20:27.800Z,93.90
2019-03-26T03:22:57.020Z,94.10
2019-03-26T03:25:25.831Z,94.00
2019-03-26T03:27:54.192Z,94.20
2019-03-26T03:30:22.696Z,94.10
2019-03-26T03:32:51.301Z,94.30
2019-03-26T03:35:19.634Z,94.50
2019-03-26T03:37:48.227Z,94.20
2019-03-26T03:40:17.111Z,94.40
2019-03-26T03:42:46.461Z,94.30
2019-03-26T03:45:18.284Z,94.40
2019-03-26T03:47:47.331Z,94.40
2019-03-26T03:50:16.809Z,94.40
2019-03-26T03:52:45.328Z,94.50
2019-03-26T03:55:13.904Z,94.40
2019-03-26T03:57:42.337Z,94.50
2019-03-26T04:00:29.320Z,94.50
2019-03-26T04:02:58.059Z,94.50
2019-03-26T04:05:26.719Z,94.40
2019-03-26T04:07:55.581Z,94.20
2019-03-26T04:10:25.466Z,94.30
2019-03-26T04:12:59.153Z,94.80
2019-03-26T04:15:27.832Z,94.20
2019-03-26T04:17:56.517Z,94.30
2019-03-26T04:20:24.812Z,94.10
2019-03-26T04:22:53.525Z,94.10
2019-03-26T04:25:21.876Z,94.20
2019-03-26T04:27:50.195Z,94.20
2019-03-26T04:30:29.552Z,94.10
2019-03-26T04:32:58.145Z,94.00
2019-03-26T04:35:26.980Z,94.00
2019-03-26T04:37:56.187Z,94.00
2019-03-26T04:40:24.586Z,94.00
2019-03-26T04:42:52.986Z,94.10
2019-03-26T04:45:21.378Z,94.10
2019-03-26T04:47:50.103Z,94.10
2019-03-26T04:50:18.874Z,94.10
2019-03-26T04:52:47.382Z,93.80
2019-03-26T04:55:16.229Z,94.20
2019-03-26T04:57:44.899Z,93.50
2019-03-26T05:00:13.258Z,93.40
2019-03-26T05:02:41.954Z,93.70
2019-03-26T05:05:12.344Z,93.90
2019-03-26T05:07:40.517Z,93.70
2019-03-26T05:10:08.950Z,93.90
2019-03-26T05:12:48.648Z,94.30
2019-03-26T05:15:17.072Z,93.80
2019-03-26T05:17:45.796Z,93.80
2019-03-26T05:20:14.501Z,93.60
2019-03-26T05:22:43.240Z,93.40
2019-03-26T05:25:11.905Z,93.50
2019-03-26T05:27:45.684Z,93.40
2019-03-26T05:30:10.600Z,93.20
2019-03-26T05:32:39.062Z,92.90
2019-03-26T05:35:07.653Z,93.00
2019-03-26T05:37:36.394Z,92.80
2019-03-26T05:40:07.470Z,92.60
2019-03-26T05:42:36.546Z,92.30
2019-03-26T05:45:07.182Z,91.80
2019-03-26T05:47:35.547Z,91.70
2019-03-26T05:50:06.377Z,91.40
2019-03-26T05:52:34.969Z,91.50
2019-03-26T05:55:05.351Z,91.70
2019-03-26T06:00:21.754Z,91.10
2019-03-26T06:02:51.503Z,91.20
2019-03-26T06:05:19.886Z,91.10
2019-03-26T06:07:49.851Z,90.60
2019-03-26T06:10:17.469Z,90.60
2019-03-26T06:12:45.858Z,90.10
2019-03-26T06:15:15.438Z,89.70
2019-03-26T06:17:43.855Z,89.70
2019-03-26T06:20:14.023Z,89.00
2019-03-26T06:22:44.006Z,85.80
2019-03-26T06:25:11.745Z,83.90
2019-03-26T06:27:40.361Z,82.90
2019-03-26T06:30:09.428Z,79.70
2019-03-26T06:32:39.135Z,79.80
2019-03-26T06:35:09.590Z,73.00
2019-03-26T06:37:38.307Z,70.90
2019-03-26T06:40:08.145Z,67.00
2019-03-26T06:42:36.431Z,63.20
2019-03-26T06:45:07.968Z,61.40
2019-03-26T06:47:36.252Z,63.90
2019-03-26T06:50:07.813Z,68.20
2019-03-26T06:52:37.755Z,70.50
2019-03-26T06:55:06.996Z,73.80
2019-03-26T06:57:36.119Z,76.50
2019-03-26T07:00:07.285Z,76.90
2019-03-26T07:02:35.912Z,79.00
2019-03-26T07:05:04.652Z,79.40
2019-03-26T07:07:32.996Z,81.90
2019-03-26T07:10:01.451Z,83.30
2019-03-26T07:12:29.841Z,82.20
2019-03-26T07:14:58.260Z,82.20
2019-03-26T07:17:27.288Z,83.60
2019-03-26T07:19:55.803Z,84.10
2019-03-26T07:22:24.133Z,84.20
2019-03-26T07:24:52.464Z,83.40
2019-03-26T07:27:20.772Z,82.50
2019-03-26T07:29:49.108Z,79.00
2019-03-26T07:32:17.525Z,70.20
2019-03-26T07:34:45.896Z,69.40
2019-03-26T07:37:14.206Z,70.00
2019-03-26T07:39:42.503Z,71.00
2019-03-26T07:42:12.416Z,69.40
2019-03-26T07:44:40.151Z,70.30
2019-03-26T07:47:08.656Z,72.30
2019-03-26T07:49:37.018Z,72.80
2019-03-26T07:52:06.939Z,73.20
2019-03-26T07:54:35.497Z,72.50
2019-03-26T07:57:03.774Z,73.80
2019-03-26T07:59:32.124Z,75.10
2019-03-26T08:02:00.461Z,75.70
2019-03-26T08:04:28.744Z,75.00
2019-03-26T08:06:57.223Z,76.30
2019-03-26T08:09:25.622Z,76.10
2019-03-26T08:11:54.663Z,76.80
2019-03-26T08:14:23.734Z,77.80
2019-03-26T08:16:52.176Z,78.50
2019-03-26T08:19:20.472Z,77.00
2019-03-26T08:21:48.811Z,78.00
2019-03-26T08:24:17.246Z,79.10
2019-03-26T08:26:46.104Z,79.50
2019-03-26T08:29:14.418Z,77.10
2019-03-26T08:31:42.796Z,77.30
2019-03-26T08:34:11.226Z,76.00
2019-03-26T08:36:39.528Z,72.20
2019-03-26T08:39:07.842Z,60.10
2019-03-26T08:41:36.195Z,51.60
2019-03-26T08:44:04.736Z,47.90
2019-03-26T08:46:33.157Z,49.20
2019-03-26T08:49:01.860Z,52.10
2019-03-26T08:51:30.655Z,54.40
2019-03-26T08:53:59.120Z,58.00
2019-03-26T08:56:27.627Z,61.10
2019-03-26T08:58:55.946Z,64.90
2019-03-26T09:01:24.429Z,65.80
2019-03-26T09:03:52.757Z,64.80
2019-03-26T09:06:21.288Z,57.50
2019-03-26T09:08:49.652Z,50.70
2019-03-26T09:11:17.931Z,50.90
2019-03-26T09:13:46.214Z,45.90
2019-03-26T09:16:14.944Z,40.70
2019-03-26T09:18:43.349Z,37.60
2019-03-26T09:21:11.940Z,39.30
2019-03-26T09:23:40.323Z,46.10
2019-03-26T09:26:08.970Z,44.10
2019-03-26T09:28:37.294Z,47.00
2019-03-26T09:31:05.723Z,50.40
2019-03-26T09:33:34.258Z,53.40
2019-03-26T09:36:02.669Z,48.80
2019-03-26T09:38:38.938Z,49.10
2019-03-26T09:41:01.190Z,44.80
2019-03-26T09:43:29.456Z,43.80
2019-03-26T09:45:57.839Z,45.10
2019-03-26T09:48:26.255Z,47.20
2019-03-26T09:50:54.797Z,44.00
2019-03-26T09:53:23.237Z,36.30
2019-03-26T09:55:51.666Z,28.90
2019-03-26T09:58:20.052Z,29.30
2019-03-26T10:00:48.865Z,34.60
2019-03-26T10:03:17.968Z,40.60
2019-03-26T10:05:46.399Z,44.60
2019-03-26T10:08:17.663Z,45.00
2019-03-26T10:10:46.293Z,42.40
2019-03-26T10:13:14.703Z,44.30
2019-03-26T10:15:43.310Z,42.50
2019-03-26T10:18:11.626Z,37.20
2019-03-26T10:20:40.008Z,36.20
2019-03-26T10:23:08.703Z,37.40
2019-03-26T10:25:37.238Z,40.70
2019-03-26T10:28:06.103Z,40.60
2019-03-26T10:30:40.630Z,43.50
2019-03-26T10:33:09.065Z,43.30
2019-03-26T10:35:48.551Z,42.80
2019-03-26T10:38:18.133Z,44.20
2019-03-26T10:40:46.698Z,45.40
2019-03-26T10:43:15.198Z,44.60
2019-03-26T10:45:43.752Z,41.40
2019-03-26T10:48:12.296Z,38.10
2019-03-26T10:50:40.746Z,38.10
2019-03-26T10:53:09.137Z,39.70
2019-03-26T10:55:37.616Z,40.70
2019-03-26T10:58:05.952Z,37.80
2019-03-26T11:00:34.244Z,32.40
2019-03-26T11:03:02.582Z,33.80
2019-03-26T11:05:31.361Z,38.60
2019-03-26T11:07:59.698Z,41.70
2019-03-26T11:10:29.957Z,42.30
2019-03-26T11:12:58.375Z,44.90
2019-03-26T11:15:27.914Z,43.60
2019-03-26T11:17:56.522Z,43.50
2019-03-26T11:20:24.948Z,43.20
2019-03-26T11:22:54.229Z,41.00
2019-03-26T11:25:22.908Z,34.70
2019-03-26T11:27:52.917Z,31.90
2019-03-26T11:30:21.713Z,34.90
2019-03-26T11:32:50.194Z,34.80
2019-03-26T11:35:18.598Z,38.20
2019-03-26T11:37:47.029Z,37.00
2019-03-26T11:40:15.326Z,36.70
2019-03-26T11:42:43.715Z,36.50
2019-03-26T11:45:12.197Z,37.20
2019-03-26T11:47:40.573Z,40.30
2019-03-26T11:50:08.943Z,41.50
2019-03-26T11:52:37.861Z,41.30
2019-03-26T11:55:10.923Z,41.20
2019-03-26T11:57:39.466Z,42.00
2019-03-26T12:00:09.868Z,40.60
2019-03-26T12:02:38.243Z,39.10
2019-03-26T12:05:07.710Z,41.10
2019-03-26T12:07:36.825Z,42.50
2019-03-26T12:10:07.424Z,42.90
2019-03-26T12:12:35.838Z,44.00
2019-03-26T12:15:05.987Z,44.70
2019-03-26T12:17:33.828Z,38.60
2019-03-26T12:20:02.112Z,36.80
2019-03-26T12:22:31.542Z,35.50
2019-03-26T12:25:00.213Z,37.90
2019-03-26T12:27:28.933Z,38.30
2019-03-26T12:29:57.322Z,40.70
2019-03-26T12:32:25.690Z,42.90
2019-03-26T12:34:54.256Z,43.20
2019-03-26T12:37:22.679Z,43.00
2019-03-26T12:39:59.448Z,40.70
2019-03-26T12:42:24.520Z,42.00
2019-03-26T12:44:52.981Z,39.40
2019-03-26T12:47:21.401Z,38.90
2019-03-26T12:49:49.813Z,40.20
2019-03-26T12:52:18.447Z,42.50
2019-03-26T12:54:46.855Z,43.70
2019-03-26T12:57:15.337Z,44.90
2019-03-26T12:59:45.081Z,46.90
2019-03-26T13:02:13.544Z,47.10
2019-03-26T13:04:41.876Z,45.80
2019-03-26T13:07:10.430Z,47.50
2019-03-26T13:09:41.769Z,46.60
2019-03-26T13:12:10.308Z,47.20
2019-03-26T13:14:38.734Z,47.70
2019-03-26T13:17:07.020Z,48.30
2019-03-26T13:19:35.483Z,49.10
2019-03-26T13:22:03.958Z,49.90
2019-03-26T13:24:32.609Z,51.20
2019-03-26T13:27:00.963Z,52.10
2019-03-26T13:29:29.530Z,53.00
2019-03-26T13:31:57.899Z,53.90
2019-03-26T13:34:26.424Z,52.90
2019-03-26T13:36:54.842Z,52.60
2019-03-26T13:39:23.449Z,52.40
2019-03-26T13:41:51.804Z,53.10
2019-03-26T13:44:20.168Z,53.00
2019-03-26T13:46:51.591Z,53.30
2019-03-26T13:49:19.992Z,54.80
2019-03-26T13:51:48.366Z,54.80
2019-03-26T13:54:16.726Z,55.80
2019-03-26T13:56:45.315Z,54.80
2019-03-26T13:59:13.619Z,54.50
2019-03-26T14:01:41.913Z,54.80
2019-03-26T14:04:10.246Z,54.40
2019-03-26T14:06:38.577Z,54.00
2019-03-26T14:09:07.692Z,54.10
2019-03-26T14:11:36.042Z,53.40
2019-03-26T14:14:04.666Z,54.70
2019-03-26T14:16:32.936Z,52.90
2019-03-26T14:19:01.215Z,53.40
2019-03-26T14:21:29.818Z,52.50
2019-03-26T14:23:58.254Z,52.30
2019-03-26T14:26:26.569Z,53.50
2019-03-26T14:28:54.884Z,53.00
2019-03-26T14:31:23.224Z,52.60
2019-03-26T14:33:51.565Z,52.50
2019-03-26T14:36:19.982Z,52.20
2019-03-26T14:38:48.507Z,52.80
2019-03-26T14:41:16.797Z,52.30
2019-03-26T14:43:45.171Z,52.50
2019-03-26T14:46:13.572Z,50.90
2019-03-26T14:48:42.084Z,50.60
2019-03-26T14:51:10.453Z,50.60
2019-03-26T14:53:38.727Z,50.90
2019-03-26T14:56:07.265Z,50.30
2019-03-26T14:58:36.209Z,50.20
2019-03-26T15:01:06.230Z,50.80
2019-03-26T15:03:34.756Z,51.00
2019-03-26T15:06:04.574Z,50.80
2019-03-26T15:08:32.406Z,52.10
2019-03-26T15:11:07.929Z,52.40
2019-03-26T15:13:30.104Z,52.80
2019-03-26T15:15:59.937Z,53.90
2019-03-26T15:18:28.366Z,53.90
2019-03-26T15:20:58.497Z,54.30
2019-03-26T15:23:26.205Z,54.00
2019-03-26T15:25:54.563Z,54.30
2019-03-26T15:28:22.884Z,53.30
2019-03-26T15:30:51.421Z,54.30
2019-03-26T15:33:19.753Z,54.60
2019-03-26T15:35:48.214Z,56.00
2019-03-26T15:38:16.675Z,56.40
2019-03-26T15:40:45.016Z,56.10
2019-03-26T15:43:13.444Z,56.30
2019-03-26T15:45:41.856Z,56.10
2019-03-26T15:48:11.508Z,56.80
2019-03-26T15:50:43.856Z,56.90
2019-03-26T15:53:12.704Z,56.90
2019-03-26T15:55:41.144Z,57.40
2019-03-26T15:58:09.533Z,57.40
2019-03-26T16:00:37.973Z,58.00
2019-03-26T16:03:06.325Z,58.60
2019-03-26T16:05:34.702Z,58.70
2019-03-26T16:08:03.175Z,58.70
2019-03-26T16:10:31.564Z,59.40
2019-03-26T16:13:00.002Z,60.80
2019-03-26T16:15:28.460Z,62.60
2019-03-26T16:17:57.048Z,64.00
2019-03-26T16:20:25.435Z,66.40
2019-03-26T16:22:54.030Z,68.50
2019-03-26T16:25:22.366Z,70.80
2019-03-26T16:27:51.011Z,72.60
2019-03-26T16:30:21.071Z,73.80
2019-03-26T16:33:01.313Z,75.10
2019-03-26T16:35:29.722Z,75.10
2019-03-26T16:37:58.147Z,75.60
2019-03-26T16:40:26.564Z,75.70
2019-03-26T16:42:54.936Z,75.60
2019-03-26T16:45:24.441Z,76.60
2019-03-26T16:47:53.154Z,76.40
2019-03-26T16:50:21.445Z,77.30
2019-03-26T16:52:49.814Z,76.80
2019-03-26T16:55:18.246Z,74.30
2019-03-26T16:57:46.538Z,75.00
2019-03-26T17:00:14.891Z,74.60
2019-03-26T17:02:43.417Z,75.40
2019-03-26T17:05:11.751Z,74.10
2019-03-26T17:07:40.163Z,74.10
2019-03-26T17:10:08.510Z,74.70
2019-03-26T17:12:36.834Z,72.80
2019-03-26T17:15:07.513Z,73.70
2019-03-26T17:17:35.909Z,74.30
2019-03-26T17:20:05.748Z,70.30
2019-03-26T17:22:34.138Z,70.20
2019-03-26T17:25:02.479Z,69.10
2019-03-26T17:27:30.796Z,68.30
2019-03-26T17:29:59.138Z,68.40
2019-03-26T17:32:27.545Z,68.70
2019-03-26T17:34:55.970Z,68.90
2019-03-26T17:37:24.359Z,68.40
2019-03-26T17:39:52.669Z,69.10
2019-03-26T17:42:21.030Z,68.10
2019-03-26T17:44:49.304Z,68.60
2019-03-26T17:47:17.632Z,67.80
2019-03-26T17:49:46.007Z,67.00
2019-03-26T17:52:14.748Z,66.30
2019-03-26T17:54:43.112Z,65.00
2019-03-26T17:57:11.383Z,65.50
2019-03-26T17:59:39.709Z,65.10
2019-03-26T18:02:08.125Z,65.70
2019-03-26T18:04:36.531Z,66.00
2019-03-26T18:07:05.558Z,69.30
2019-03-26T18:09:34.117Z,70.40
2019-03-26T18:12:02.432Z,72.00
2019-03-26T18:14:30.763Z,72.70
2019-03-26T18:16:59.173Z,73.40
2019-03-26T18:19:27.485Z,74.70
2019-03-26T18:21:55.779Z,75.00
2019-03-26T18:24:24.071Z,75.50
2019-03-26T18:26:52.305Z,75.80
2019-03-26T18:29:20.729Z,76.40
2019-03-26T18:31:49.136Z,76.90
2019-03-26T18:34:18.333Z,77.10
2019-03-26T18:36:46.846Z,77.10
2019-03-26T18:39:15.127Z,76.70
2019-03-26T18:41:43.439Z,77.00
2019-03-26T18:44:11.718Z,77.60
2019-03-26T18:46:40.011Z,77.10
2019-03-26T18:49:08.415Z,78.50
2019-03-26T18:51:36.701Z,79.10
2019-03-26T18:54:05.057Z,79.10
2019-03-26T18:56:33.303Z,79.60
2019-03-26T18:59:01.628Z,79.80
2019-03-26T19:01:30.011Z,79.90
2019-03-26T19:03:58.236Z,80.20
2019-03-26T19:06:35.073Z,79.80
2019-03-26T19:09:04.307Z,79.60
2019-03-26T19:11:34.199Z,79.20
2019-03-26T19:14:02.654Z,79.50
2019-03-26T19:16:31.125Z,80.00
2019-03-26T19:18:59.566Z,79.70
2019-03-26T19:21:28.012Z,80.40
2019-03-26T19:24:04.129Z,79.20
2019-03-26T19:26:27.310Z,78.20
2019-03-26T19:28:55.814Z,76.70
2019-03-26T19:31:24.111Z,77.20
2019-03-26T19:33:52.442Z,76.40
2019-03-26T19:36:20.860Z,73.70
2019-03-26T19:38:49.238Z,73.20
2019-03-26T19:41:19.226Z,72.90
2019-03-26T19:44:00.755Z,72.00
2019-03-26T19:46:29.278Z,71.90
2019-03-26T19:48:57.613Z,72.10
2019-03-26T19:51:26.004Z,71.20
2019-03-26T19:53:54.589Z,70.40
2019-03-26T19:56:27.749Z,69.40
2019-03-26T19:58:56.486Z,68.70
2019-03-26T20:01:37.399Z,67.80
2019-03-26T20:04:06.041Z,67.30
2019-03-26T20:06:34.390Z,66.50
2019-03-26T20:09:05.031Z,65.90
2019-03-26T20:11:33.782Z,65.80
2019-03-26T20:14:03.005Z,64.70
2019-03-26T20:16:41.751Z,64.30
2019-03-26T20:19:02.284Z,64.20
2019-03-26T20:21:31.152Z,64.00
2019-03-26T20:24:00.600Z,64.10
2019-03-26T20:26:29.301Z,63.90
2019-03-26T20:29:03.323Z,64.20
2019-03-26T20:31:31.568Z,64.20
2019-03-26T20:34:00.389Z,64.80
2019-03-26T20:36:29.074Z,64.60
2019-03-26T20:39:02.444Z,64.10
2019-03-26T20:41:31.441Z,64.50
2019-03-26T20:43:59.896Z,65.10
2019-03-26T20:46:28.462Z,64.60
2019-03-26T20:48:57.494Z,65.90
2019-03-26T20:51:25.916Z,66.30
2019-03-26T20:53:54.367Z,68.30
2019-03-26T20:56:22.946Z,71.20
2019-03-26T20:58:57.974Z,71.10
2019-03-26T21:01:26.395Z,71.60
2019-03-26T21:03:54.867Z,72.30
2019-03-26T21:06:23.170Z,75.40
2019-03-26T21:08:52.547Z,76.30
2019-03-26T21:11:21.088Z,75.80
2019-03-26T21:13:50.850Z,76.40
2019-03-26T21:16:19.696Z,77.50
2019-03-26T21:18:48.898Z,78.00
2019-03-26T21:21:17.428Z,78.70
2019-03-26T21:23:45.730Z,81.30
2019-03-26T21:26:14.261Z,83.30
2019-03-26T21:28:42.656Z,86.10
2019-03-26T21:31:11.066Z,88.10
2019-03-26T21:33:39.643Z,89.90
2019-03-26T21:36:08.032Z,90.50
2019-03-26T21:38:36.268Z,90.90
2019-03-26T21:41:04.668Z,91.30
2019-03-26T21:43:33.041Z,91.70
2019-03-26T21:46:01.590Z,91.80
2019-03-26T21:48:29.987Z,91.90
2019-03-26T21:50:58.579Z,92.20
2019-03-26T21:53:26.893Z,92.60
2019-03-26T21:56:05.928Z,92.90
2019-03-26T21:58:26.322Z,92.90
2019-03-26T22:00:55.098Z,93.20
2019-03-26T22:03:23.826Z,93.40
2019-03-26T22:05:52.229Z,93.50
2019-03-26T22:08:20.559Z,93.50
2019-03-26T22:10:50.617Z,93.70
2019-03-26T22:13:19.141Z,94.10
2019-03-26T22:15:47.801Z,94.00
2019-03-26T22:18:16.489Z,94.20
2019-03-26T22:20:45.897Z,94.20
2019-03-26T22:23:15.318Z,94.30
2019-03-26T22:25:44.886Z,94.50
2019-03-26T22:28:13.512Z,94.50
2019-03-26T22:30:42.115Z,94.60
2019-03-26T22:33:10.468Z,94.60
2019-03-26T22:35:38.855Z,94.30
2019-03-26T22:38:07.442Z,94.70
2019-03-26T22:40:36.042Z,94.80
2019-03-26T22:43:04.599Z,94.80
2019-03-26T22:45:32.910Z,94.70
2019-03-26T22:48:01.337Z,94.80
2019-03-26T22:50:29.767Z,94.90
2019-03-26T22:52:58.219Z,94.90
2019-03-26T22:55:26.744Z,95.10
2019-03-26T22:57:55.164Z,94.90
2019-03-26T23:00:23.633Z,95.10
2019-03-26T23:02:52.149Z,95.10
2019-03-26T23:05:20.583Z,95.00
2019-03-26T23:07:50.324Z,95.10
2019-03-26T23:10:18.103Z,95.20
2019-03-26T23:12:46.632Z,95.10
2019-03-26T23:15:21.462Z,95.00
2019-03-26T23:17:50.098Z,94.80
2019-03-26T23:20:18.591Z,94.90
2019-03-26T23:22:47.094Z,95.00
2019-03-26T23:25:15.701Z,95.10
2019-03-26T23:27:44.080Z,95.00
2019-03-26T23:30:12.527Z,95.00
2019-03-26T23:32:41.141Z,95.00
2019-03-26T23:35:09.619Z,95.10
2019-03-26T23:37:37.946Z,95.10
2019-03-26T23:40:06.293Z,95.10
2019-03-26T23:42:34.635Z,95.20
2019-03-26T23:45:04.221Z,95.10
2019-03-26T23:47:32.794Z,95.20
2019-03-26T23:50:01.459Z,95.20
2019-03-26T23:52:30.131Z,95.20
2019-03-26T23:54:58.694Z,95.40
2019-03-26T23:57:26.993Z,95.50
2019-03-26T23:59:55.387Z,95.60
